createdAt,value
2018-07-13T00:00:44.511Z,992.90
2018-07-13T00:01:44.660Z,992.89
2018-07-13T00:02:44.795Z,992.88
2018-07-13T00:03:44.937Z,992.87
2018-07-13T00:04:45.073Z,992.82
2018-07-13T00:05:45.214Z,992.82
2018-07-13T00:06:45.360Z,992.82
2018-07-13T00:07:45.505Z,992.86
2018-07-13T00:08:45.644Z,992.85
2018-07-13T00:09:45.785Z,992.86
2018-07-13T00:10:45.927Z,992.89
2018-07-13T00:11:46.066Z,992.88
2018-07-13T00:12:46.208Z,992.87
2018-07-13T00:13:46.344Z,992.93
2018-07-13T00:14:46.484Z,992.92
2018-07-13T00:15:46.620Z,992.94
2018-07-13T00:16:46.767Z,992.94
2018-07-13T00:17:46.904Z,992.98
2018-07-13T00:18:47.038Z,992.97
2018-07-13T00:19:47.172Z,992.98
2018-07-13T00:20:47.313Z,993.01
2018-07-13T00:21:47.450Z,992.97
2018-07-13T00:22:47.586Z,992.99
2018-07-13T00:23:47.722Z,993.02
2018-07-13T00:24:47.964Z,993.02
2018-07-13T00:25:48.017Z,993.01
2018-07-13T00:26:48.160Z,993.01
2018-07-13T00:27:48.306Z,993.02
2018-07-13T00:28:48.443Z,993.00
2018-07-13T00:29:48.594Z,993.04
2018-07-13T00:30:48.734Z,993.00
2018-07-13T00:31:48.876Z,993.03
2018-07-13T00:32:49.019Z,993.03
2018-07-13T00:33:49.154Z,992.99
2018-07-13T00:34:49.301Z,993.01
2018-07-13T00:35:49.448Z,993.00
2018-07-13T00:36:49.580Z,993.03
2018-07-13T00:37:49.745Z,993.00
2018-07-13T00:38:49.907Z,992.99
2018-07-13T00:39:50.057Z,992.99
2018-07-13T00:40:50.193Z,992.99
2018-07-13T00:41:50.330Z,992.99
2018-07-13T00:42:50.460Z,992.98
2018-07-13T00:43:50.605Z,993.04
2018-07-13T00:44:50.742Z,992.99
2018-07-13T00:45:50.873Z,993.02
2018-07-13T00:46:51.023Z,993.01
2018-07-13T00:47:51.155Z,992.98
2018-07-13T00:48:51.297Z,993.03
2018-07-13T00:49:51.432Z,993.04
2018-07-13T00:50:51.574Z,993.01
2018-07-13T00:51:51.719Z,993.04
2018-07-13T00:52:51.963Z,993.05
2018-07-13T00:53:52.090Z,993.04
2018-07-13T00:54:52.099Z,993.07
2018-07-13T00:55:52.243Z,993.11
2018-07-13T00:56:52.383Z,993.06
2018-07-13T00:57:52.523Z,993.03
2018-07-13T00:58:52.654Z,993.05
2018-07-13T00:59:52.791Z,993.02
2018-07-13T01:00:52.937Z,993.01
2018-07-13T01:01:53.078Z,992.97
2018-07-13T01:02:53.222Z,993.02
2018-07-13T01:03:53.360Z,992.97
2018-07-13T01:04:53.521Z,992.99
2018-07-13T01:05:53.654Z,992.99
2018-07-13T01:06:53.793Z,992.98
2018-07-13T01:07:53.933Z,992.97
2018-07-13T01:08:54.070Z,993.05
2018-07-13T01:09:54.201Z,993.02
2018-07-13T01:10:54.331Z,993.06
2018-07-13T01:11:54.466Z,993.09
2018-07-13T01:12:54.603Z,993.07
2018-07-13T01:13:54.733Z,993.08
2018-07-13T01:14:54.865Z,993.10
2018-07-13T01:15:55.013Z,993.07
2018-07-13T01:16:55.148Z,993.10
2018-07-13T01:17:55.271Z,993.09
2018-07-13T01:18:56.318Z,993.06
2018-07-13T01:19:55.546Z,993.06
2018-07-13T01:20:55.715Z,993.04
2018-07-13T01:21:55.810Z,993.05
2018-07-13T01:22:55.952Z,993.01
2018-07-13T01:23:56.091Z,993.01
2018-07-13T01:24:56.229Z,992.99
2018-07-13T01:25:56.377Z,993.00
2018-07-13T01:26:56.515Z,992.97
2018-07-13T01:27:56.702Z,993.01
2018-07-13T01:28:56.849Z,993.04
2018-07-13T01:29:56.989Z,993.00
2018-07-13T01:30:57.125Z,993.03
2018-07-13T01:31:57.263Z,993.04
2018-07-13T01:32:57.404Z,993.03
2018-07-13T01:33:57.550Z,993.03
2018-07-13T01:34:57.688Z,993.09
2018-07-13T01:35:57.828Z,993.09
2018-07-13T01:36:57.969Z,993.11
2018-07-13T01:37:58.115Z,993.15
2018-07-13T01:38:58.262Z,993.14
2018-07-13T01:39:58.400Z,993.16
2018-07-13T01:40:58.543Z,993.16
2018-07-13T01:41:58.683Z,993.15
2018-07-13T01:42:58.819Z,993.17
2018-07-13T01:43:58.957Z,993.15
2018-07-13T01:44:59.105Z,993.14
2018-07-13T01:45:59.242Z,993.13
2018-07-13T01:46:59.381Z,993.14
2018-07-13T01:47:59.523Z,993.13
2018-07-13T01:48:59.653Z,993.13
2018-07-13T01:49:59.796Z,993.11
2018-07-13T01:50:59.928Z,993.17
2018-07-13T01:52:00.066Z,993.08
2018-07-13T01:53:00.201Z,993.11
2018-07-13T01:54:00.342Z,993.14
2018-07-13T01:55:00.475Z,993.10
2018-07-13T01:56:00.615Z,993.10
2018-07-13T01:57:00.755Z,993.08
2018-07-13T01:58:00.893Z,993.10
2018-07-13T01:59:01.047Z,993.06
2018-07-13T02:00:01.217Z,993.10
2018-07-13T02:01:01.355Z,993.09
2018-07-13T02:02:01.493Z,993.07
2018-07-13T02:03:01.649Z,993.06
2018-07-13T02:04:01.787Z,993.07
2018-07-13T02:05:01.928Z,993.04
2018-07-13T02:06:02.064Z,993.05
2018-07-13T02:07:02.201Z,993.06
2018-07-13T02:08:02.344Z,993.10
2018-07-13T02:09:02.498Z,993.08
2018-07-13T02:10:02.617Z,993.12
2018-07-13T02:11:02.756Z,993.11
2018-07-13T02:12:02.890Z,993.12
2018-07-13T02:13:03.039Z,993.14
2018-07-13T02:14:03.169Z,993.16
2018-07-13T02:15:03.307Z,993.15
2018-07-13T02:16:03.445Z,993.21
2018-07-13T02:17:03.585Z,993.20
2018-07-13T02:18:03.752Z,993.19
2018-07-13T02:19:03.893Z,993.20
2018-07-13T02:20:04.034Z,993.20
2018-07-13T02:21:04.169Z,993.18
2018-07-13T02:22:04.296Z,993.20
2018-07-13T02:23:04.428Z,993.18
2018-07-13T02:24:04.572Z,993.20
2018-07-13T02:25:04.711Z,993.21
2018-07-13T02:26:04.869Z,993.22
2018-07-13T02:27:04.987Z,993.21
2018-07-13T02:28:05.124Z,993.24
2018-07-13T02:29:05.253Z,993.21
2018-07-13T02:30:05.391Z,993.20
2018-07-13T02:31:05.534Z,993.21
2018-07-13T02:32:05.669Z,993.18
2018-07-13T02:33:05.799Z,993.22
2018-07-13T02:34:05.939Z,993.23
2018-07-13T02:35:06.089Z,993.22
2018-07-13T02:36:06.226Z,993.22
2018-07-13T02:37:06.364Z,993.20
2018-07-13T02:38:06.512Z,993.19
2018-07-13T02:39:06.741Z,993.21
2018-07-13T02:40:06.779Z,993.22
2018-07-13T02:41:06.919Z,993.22
2018-07-13T02:42:07.061Z,993.22
2018-07-13T02:43:07.201Z,993.23
2018-07-13T02:44:07.343Z,993.22
2018-07-13T02:45:07.483Z,993.22
2018-07-13T02:46:07.622Z,993.24
2018-07-13T02:47:07.772Z,993.26
2018-07-13T02:48:07.910Z,993.28
2018-07-13T02:49:08.058Z,993.31
2018-07-13T02:50:08.195Z,993.31
2018-07-13T02:51:08.333Z,993.33
2018-07-13T02:52:08.474Z,993.29
2018-07-13T02:53:08.616Z,993.32
2018-07-13T02:54:08.750Z,993.32
2018-07-13T02:55:08.887Z,993.37
2018-07-13T02:56:09.032Z,993.34
2018-07-13T02:57:09.170Z,993.34
2018-07-13T02:58:09.308Z,993.37
2018-07-13T02:59:09.443Z,993.34
2018-07-13T03:00:09.587Z,993.40
2018-07-13T03:01:09.728Z,993.37
2018-07-13T03:02:09.873Z,993.40
2018-07-13T03:03:10.023Z,993.39
2018-07-13T03:04:10.227Z,993.42
2018-07-13T03:05:10.310Z,993.43
2018-07-13T03:06:10.444Z,993.41
2018-07-13T03:07:10.583Z,993.43
2018-07-13T03:08:10.725Z,993.45
2018-07-13T03:09:10.864Z,993.47
2018-07-13T03:10:11.009Z,993.47
2018-07-13T03:11:11.147Z,993.46
2018-07-13T03:12:11.294Z,993.48
2018-07-13T03:13:11.431Z,993.51
2018-07-13T03:14:11.608Z,993.46
2018-07-13T03:15:11.735Z,993.50
2018-07-13T03:16:11.876Z,993.52
2018-07-13T03:17:12.022Z,993.50
2018-07-13T03:18:12.171Z,993.49
2018-07-13T03:19:12.310Z,993.51
2018-07-13T03:20:12.445Z,993.51
2018-07-13T03:21:12.596Z,993.51
2018-07-13T03:22:12.760Z,993.52
2018-07-13T03:23:12.871Z,993.55
2018-07-13T03:24:13.038Z,993.54
2018-07-13T03:25:13.180Z,993.54
2018-07-13T03:26:13.313Z,993.58
2018-07-13T03:27:13.460Z,993.57
2018-07-13T03:28:13.602Z,993.59
2018-07-13T03:29:13.739Z,993.59
2018-07-13T03:30:13.880Z,993.60
2018-07-13T03:31:14.016Z,993.61
2018-07-13T03:32:14.162Z,993.60
2018-07-13T03:33:14.297Z,993.59
2018-07-13T03:34:14.435Z,993.60
2018-07-13T03:35:14.584Z,993.61
2018-07-13T03:36:14.719Z,993.59
2018-07-13T03:37:14.859Z,993.61
2018-07-13T03:38:15.011Z,993.66
2018-07-13T03:39:15.132Z,993.67
2018-07-13T03:40:15.281Z,993.62
2018-07-13T03:41:15.425Z,993.63
2018-07-13T03:42:15.582Z,993.66
2018-07-13T03:43:15.725Z,993.63
2018-07-13T03:44:15.862Z,993.67
2018-07-13T03:45:15.996Z,993.69
2018-07-13T03:46:16.134Z,993.66
2018-07-13T03:47:16.269Z,993.68
2018-07-13T03:48:16.457Z,993.71
2018-07-13T03:49:16.535Z,993.67
2018-07-13T03:50:16.682Z,993.68
2018-07-13T03:51:16.815Z,993.72
2018-07-13T03:52:16.958Z,993.73
2018-07-13T03:53:17.098Z,993.72
2018-07-13T03:54:17.257Z,993.69
2018-07-13T03:55:17.389Z,993.71
2018-07-13T03:56:17.532Z,993.70
2018-07-13T03:57:17.685Z,993.70
2018-07-13T03:58:17.818Z,993.74
2018-07-13T03:59:17.961Z,993.73
2018-07-13T04:00:18.100Z,993.70
2018-07-13T04:01:18.232Z,993.77
2018-07-13T04:02:18.370Z,993.73
2018-07-13T04:03:18.512Z,993.73
2018-07-13T04:04:18.650Z,993.75
2018-07-13T04:05:18.788Z,993.70
2018-07-13T04:06:18.931Z,993.70
2018-07-13T04:07:19.072Z,993.71
2018-07-13T04:08:19.216Z,993.69
2018-07-13T04:09:19.358Z,993.70
2018-07-13T04:10:19.501Z,993.69
2018-07-13T04:11:19.637Z,993.66
2018-07-13T04:12:19.779Z,993.68
2018-07-13T04:13:19.916Z,993.67
2018-07-13T04:14:20.070Z,993.71
2018-07-13T04:15:20.211Z,993.70
2018-07-13T04:16:20.348Z,993.73
2018-07-13T04:17:20.492Z,993.71
2018-07-13T04:18:20.633Z,993.70
2018-07-13T04:19:20.785Z,993.71
2018-07-13T04:20:20.921Z,993.70
2018-07-13T04:21:21.058Z,993.70
2018-07-13T04:22:21.198Z,993.72
2018-07-13T04:23:21.349Z,993.70
2018-07-13T04:24:21.466Z,993.70
2018-07-13T04:25:21.600Z,993.68
2018-07-13T04:26:21.768Z,993.68
2018-07-13T04:27:21.909Z,993.69
2018-07-13T04:28:22.052Z,993.67
2018-07-13T04:29:22.186Z,993.68
2018-07-13T04:30:22.320Z,993.71
2018-07-13T04:31:22.457Z,993.67
2018-07-13T04:32:22.596Z,993.66
2018-07-13T04:33:22.761Z,993.66
2018-07-13T04:34:22.972Z,993.67
2018-07-13T04:35:23.033Z,993.69
2018-07-13T04:36:23.859Z,993.67
2018-07-13T04:37:23.420Z,993.71
2018-07-13T04:38:23.474Z,993.68
2018-07-13T04:39:23.632Z,993.71
2018-07-13T04:40:23.789Z,993.66
2018-07-13T04:41:23.932Z,993.68
2018-07-13T04:42:24.075Z,993.67
2018-07-13T04:43:24.218Z,993.71
2018-07-13T04:44:24.350Z,993.69
2018-07-13T04:45:24.491Z,993.72
2018-07-13T04:46:24.631Z,993.71
2018-07-13T04:47:24.788Z,993.74
2018-07-13T04:48:24.923Z,993.74
2018-07-13T04:49:25.066Z,993.75
2018-07-13T04:50:25.207Z,993.74
2018-07-13T04:51:25.392Z,993.78
2018-07-13T04:52:25.557Z,993.72
2018-07-13T04:53:25.698Z,993.73
2018-07-13T04:54:25.885Z,993.72
2018-07-13T04:55:26.023Z,993.74
2018-07-13T04:56:26.170Z,993.73
2018-07-13T04:57:26.305Z,993.70
2018-07-13T04:58:26.439Z,993.75
2018-07-13T04:59:26.577Z,993.76
2018-07-13T05:00:26.716Z,993.78
2018-07-13T05:01:26.853Z,993.76
2018-07-13T05:02:27.000Z,993.81
2018-07-13T05:03:27.149Z,993.79
2018-07-13T05:04:27.288Z,993.81
2018-07-13T05:05:27.425Z,993.78
2018-07-13T05:06:27.577Z,993.81
2018-07-13T05:07:27.714Z,993.83
2018-07-13T05:08:27.864Z,993.80
2018-07-13T05:09:28.007Z,993.81
2018-07-13T05:10:28.143Z,993.83
2018-07-13T05:11:28.280Z,993.81
2018-07-13T05:12:28.420Z,993.82
2018-07-13T05:13:28.565Z,993.82
2018-07-13T05:14:28.696Z,993.79
2018-07-13T05:15:28.836Z,993.78
2018-07-13T05:16:28.983Z,993.78
2018-07-13T05:17:29.128Z,993.80
2018-07-13T05:18:29.261Z,993.80
2018-07-13T05:19:29.402Z,993.82
2018-07-13T05:20:29.540Z,993.78
2018-07-13T05:21:29.686Z,993.80
2018-07-13T05:22:29.819Z,993.77
2018-07-13T05:23:29.961Z,993.79
2018-07-13T05:24:30.106Z,993.78
2018-07-13T05:25:30.239Z,993.80
2018-07-13T05:26:30.395Z,993.78
2018-07-13T05:27:30.542Z,993.78
2018-07-13T05:28:30.682Z,993.76
2018-07-13T05:29:30.826Z,993.75
2018-07-13T05:30:30.977Z,993.77
2018-07-13T05:31:31.112Z,993.80
2018-07-13T05:32:31.249Z,993.77
2018-07-13T05:33:31.393Z,993.79
2018-07-13T05:34:31.537Z,993.79
2018-07-13T05:35:31.682Z,993.81
2018-07-13T05:36:31.817Z,993.83
2018-07-13T05:37:31.959Z,993.82
2018-07-13T05:38:32.105Z,993.83
2018-07-13T05:39:32.243Z,993.85
2018-07-13T05:40:32.383Z,993.86
2018-07-13T05:41:32.522Z,993.89
2018-07-13T05:42:32.657Z,993.86
2018-07-13T05:43:32.802Z,993.89
2018-07-13T05:44:32.952Z,993.93
2018-07-13T05:45:33.074Z,993.88
2018-07-13T05:46:33.211Z,993.88
2018-07-13T05:47:33.354Z,993.85
2018-07-13T05:48:33.519Z,993.89
2018-07-13T05:49:33.665Z,993.89
2018-07-13T05:50:33.788Z,993.91
2018-07-13T05:51:33.928Z,993.92
2018-07-13T05:52:34.063Z,993.91
2018-07-13T05:53:34.198Z,993.90
2018-07-13T05:54:34.342Z,993.90
2018-07-13T05:55:34.488Z,993.92
2018-07-13T05:56:34.618Z,993.93
2018-07-13T05:57:34.764Z,993.90
2018-07-13T05:58:34.903Z,993.92
2018-07-13T05:59:35.043Z,993.98
2018-07-13T06:00:35.180Z,993.98
2018-07-13T06:01:35.322Z,994.03
2018-07-13T06:02:35.453Z,994.04
2018-07-13T06:03:35.597Z,994.03
2018-07-13T06:04:35.732Z,994.03
2018-07-13T06:05:35.875Z,994.06
2018-07-13T06:06:36.070Z,994.03
2018-07-13T06:07:36.146Z,994.01
2018-07-13T06:08:36.290Z,994.01
2018-07-13T06:09:36.429Z,994.02
2018-07-13T06:10:36.577Z,994.06
2018-07-13T06:11:36.712Z,994.04
2018-07-13T06:12:36.854Z,993.99
2018-07-13T06:13:36.995Z,994.01
2018-07-13T06:14:37.188Z,994.00
2018-07-13T06:15:37.336Z,994.03
2018-07-13T06:16:37.423Z,994.01
2018-07-13T06:17:37.559Z,993.97
2018-07-13T06:18:37.698Z,993.99
2018-07-13T06:19:37.842Z,994.01
2018-07-13T06:20:37.975Z,994.00
2018-07-13T06:21:38.120Z,994.01
2018-07-13T06:22:38.257Z,993.99
2018-07-13T06:23:38.390Z,994.01
2018-07-13T06:24:38.524Z,993.98
2018-07-13T06:25:38.659Z,994.03
2018-07-13T06:26:38.796Z,994.03
2018-07-13T06:27:38.937Z,994.01
2018-07-13T06:28:39.071Z,994.02
2018-07-13T06:29:39.281Z,993.99
2018-07-13T06:30:39.364Z,994.05
2018-07-13T06:31:39.516Z,994.04
2018-07-13T06:32:39.666Z,994.01
2018-07-13T06:33:39.786Z,994.01
2018-07-13T06:34:39.937Z,994.02
2018-07-13T06:35:40.078Z,994.00
2018-07-13T06:36:40.215Z,993.97
2018-07-13T06:37:40.353Z,993.97
2018-07-13T06:38:40.494Z,993.95
2018-07-13T06:39:40.639Z,993.95
2018-07-13T06:40:40.781Z,993.95
2018-07-13T06:41:40.925Z,993.94
2018-07-13T06:42:41.065Z,993.95
2018-07-13T06:43:41.222Z,993.97
2018-07-13T06:44:41.354Z,994.01
2018-07-13T06:45:41.494Z,994.00
2018-07-13T06:46:41.650Z,994.00
2018-07-13T06:47:41.785Z,994.00
2018-07-13T06:48:41.934Z,994.01
2018-07-13T06:49:42.071Z,994.01
2018-07-13T06:50:42.280Z,994.01
2018-07-13T06:51:42.360Z,994.03
2018-07-13T06:52:42.490Z,994.02
2018-07-13T06:53:42.632Z,994.04
2018-07-13T06:54:42.773Z,994.07
2018-07-13T06:55:42.916Z,994.06
2018-07-13T06:56:43.079Z,994.09
2018-07-13T06:57:43.200Z,994.10
2018-07-13T06:58:43.344Z,994.06
2018-07-13T06:59:43.490Z,994.08
2018-07-13T07:00:43.626Z,994.08
2018-07-13T07:01:43.778Z,994.09
2018-07-13T07:02:43.921Z,994.06
2018-07-13T07:03:44.058Z,994.08
2018-07-13T07:04:44.208Z,994.07
2018-07-13T07:05:44.348Z,994.10
2018-07-13T07:06:44.500Z,994.09
2018-07-13T07:07:44.719Z,994.06
2018-07-13T07:08:44.772Z,994.08
2018-07-13T07:09:44.909Z,994.09
2018-07-13T07:10:45.087Z,994.08
2018-07-13T07:11:45.220Z,994.08
2018-07-13T07:12:45.367Z,994.10
2018-07-13T07:13:45.500Z,994.10
2018-07-13T07:14:45.632Z,994.09
2018-07-13T07:15:45.772Z,994.09
2018-07-13T07:16:45.910Z,994.06
2018-07-13T07:17:46.110Z,994.04
2018-07-13T07:18:46.203Z,994.08
2018-07-13T07:19:46.342Z,994.06
2018-07-13T07:20:46.481Z,994.10
2018-07-13T07:21:46.615Z,994.08
2018-07-13T07:22:46.782Z,994.08
2018-07-13T07:23:46.918Z,994.07
2018-07-13T07:24:47.059Z,994.07
2018-07-13T07:25:47.223Z,994.06
2018-07-13T07:26:47.363Z,994.07
2018-07-13T07:27:47.503Z,994.06
2018-07-13T07:28:47.640Z,994.08
2018-07-13T07:29:47.793Z,994.07
2018-07-13T07:30:47.987Z,994.06
2018-07-13T07:31:48.072Z,994.05
2018-07-13T07:32:48.325Z,994.05
2018-07-13T07:33:48.385Z,994.03
2018-07-13T07:34:48.507Z,994.06
2018-07-13T07:35:48.658Z,994.03
2018-07-13T07:36:48.801Z,994.01
2018-07-13T07:37:48.949Z,994.05
2018-07-13T07:38:49.124Z,994.00
2018-07-13T07:39:49.237Z,994.05
2018-07-13T07:40:49.383Z,994.03
2018-07-13T07:41:49.536Z,994.03
2018-07-13T07:42:49.675Z,994.06
2018-07-13T07:43:49.826Z,994.04
2018-07-13T07:44:49.963Z,994.05
2018-07-13T07:45:50.106Z,994.04
2018-07-13T07:46:50.247Z,994.04
2018-07-13T07:47:50.389Z,994.06
2018-07-13T07:48:50.532Z,994.05
2018-07-13T07:49:50.675Z,994.03
2018-07-13T07:50:50.818Z,994.05
2018-07-13T07:51:50.954Z,994.02
2018-07-13T07:52:51.090Z,994.06
2018-07-13T07:53:51.235Z,994.06
2018-07-13T07:54:51.384Z,994.03
2018-07-13T07:55:51.520Z,994.04
2018-07-13T07:56:51.671Z,994.04
2018-07-13T07:57:51.825Z,994.02
2018-07-13T07:58:51.966Z,994.04
2018-07-13T07:59:52.111Z,994.02
2018-07-13T08:00:52.245Z,994.02
2018-07-13T08:01:52.465Z,994.03
2018-07-13T08:02:52.542Z,994.02
2018-07-13T08:03:52.693Z,994.00
2018-07-13T08:04:52.834Z,994.01
2018-07-13T08:05:52.973Z,993.99
2018-07-13T08:06:53.465Z,993.99
2018-07-13T08:07:53.264Z,994.01
2018-07-13T08:08:53.414Z,993.97
2018-07-13T08:09:53.624Z,994.00
2018-07-13T08:10:53.641Z,993.98
2018-07-13T08:11:53.791Z,993.96
2018-07-13T08:12:53.960Z,994.00
2018-07-13T08:13:54.162Z,994.01
2018-07-13T08:14:54.213Z,994.02
2018-07-13T08:15:54.364Z,994.01
2018-07-13T08:16:54.501Z,994.00
2018-07-13T08:17:54.646Z,994.03
2018-07-13T08:18:54.802Z,994.03
2018-07-13T08:19:54.920Z,994.00
2018-07-13T08:20:55.062Z,994.06
2018-07-13T08:21:55.198Z,994.02
2018-07-13T08:22:55.333Z,994.00
2018-07-13T08:23:55.507Z,993.96
2018-07-13T08:24:55.631Z,993.96
2018-07-13T08:25:55.778Z,993.90
2018-07-13T08:26:55.916Z,993.92
2018-07-13T08:27:56.075Z,993.89
2018-07-13T08:28:56.216Z,993.86
2018-07-13T08:29:56.354Z,993.85
2018-07-13T08:30:56.500Z,993.88
2018-07-13T08:31:56.645Z,993.83
2018-07-13T08:32:56.790Z,993.85
2018-07-13T08:33:56.927Z,993.88
2018-07-13T08:34:57.082Z,993.84
2018-07-13T08:35:57.904Z,993.87
2018-07-13T08:36:57.349Z,993.85
2018-07-13T08:37:57.521Z,993.87
2018-07-13T08:38:57.655Z,993.87
2018-07-13T08:39:57.801Z,993.85
2018-07-13T08:40:57.942Z,993.86
2018-07-13T08:41:58.091Z,993.84
2018-07-13T08:42:58.227Z,993.83
2018-07-13T08:43:58.381Z,993.89
2018-07-13T08:44:58.538Z,993.84
2018-07-13T08:45:58.719Z,993.88
2018-07-13T08:46:58.816Z,993.87
2018-07-13T08:47:58.958Z,993.90
2018-07-13T08:48:59.107Z,993.88
2018-07-13T08:49:59.235Z,993.91
2018-07-13T08:50:59.373Z,993.95
2018-07-13T08:51:59.517Z,993.91
2018-07-13T08:52:59.659Z,993.91
2018-07-13T08:53:59.798Z,993.93
2018-07-13T08:54:59.939Z,993.89
2018-07-13T08:56:00.077Z,993.89
2018-07-13T08:57:00.214Z,993.88
2018-07-13T08:58:00.365Z,993.84
2018-07-13T08:59:00.538Z,993.89
2018-07-13T09:00:00.684Z,993.86
2018-07-13T09:01:00.835Z,993.86
2018-07-13T09:02:00.982Z,993.86
2018-07-13T09:03:01.116Z,993.87
2018-07-13T09:04:01.274Z,993.85
2018-07-13T09:05:01.407Z,993.81
2018-07-13T09:06:01.554Z,993.84
2018-07-13T09:07:01.688Z,993.82
2018-07-13T09:08:01.831Z,993.84
2018-07-13T09:09:01.974Z,993.87
2018-07-13T09:10:02.117Z,993.85
2018-07-13T09:11:02.258Z,993.86
2018-07-13T09:12:02.400Z,993.84
2018-07-13T09:13:02.623Z,993.86
2018-07-13T09:14:02.685Z,993.84
2018-07-13T09:15:02.829Z,993.86
2018-07-13T09:16:02.974Z,993.79
2018-07-13T09:17:03.117Z,993.83
2018-07-13T09:18:03.325Z,993.81
2018-07-13T09:19:03.342Z,993.83
2018-07-13T09:20:03.487Z,993.85
2018-07-13T09:21:04.412Z,993.83
2018-07-13T09:22:03.896Z,993.84
2018-07-13T09:23:03.913Z,993.80
2018-07-13T09:24:04.113Z,993.82
2018-07-13T09:25:04.203Z,993.83
2018-07-13T09:26:04.360Z,993.81
2018-07-13T09:27:04.494Z,993.81
2018-07-13T09:28:04.641Z,993.81
2018-07-13T09:29:04.810Z,993.85
2018-07-13T09:30:04.974Z,993.83
2018-07-13T09:31:05.148Z,993.85
2018-07-13T09:32:05.254Z,993.86
2018-07-13T09:33:05.973Z,993.89
2018-07-13T09:34:05.600Z,993.87
2018-07-13T09:35:05.759Z,993.88
2018-07-13T09:36:05.910Z,993.89
2018-07-13T09:37:06.073Z,993.89
2018-07-13T09:38:06.297Z,993.87
2018-07-13T09:39:06.363Z,993.86
2018-07-13T09:40:06.514Z,993.88
2018-07-13T09:41:06.681Z,993.86
2018-07-13T09:42:06.791Z,993.85
2018-07-13T09:43:06.938Z,993.86
2018-07-13T09:44:07.079Z,993.81
2018-07-13T09:45:07.294Z,993.84
2018-07-13T09:46:07.303Z,993.81
2018-07-13T09:47:07.451Z,993.80
2018-07-13T09:48:07.610Z,993.79
2018-07-13T09:49:07.751Z,993.79
2018-07-13T09:50:07.888Z,993.71
2018-07-13T09:51:08.042Z,993.73
2018-07-13T09:52:08.184Z,993.74
2018-07-13T09:53:08.328Z,993.76
2018-07-13T09:54:08.708Z,993.79
2018-07-13T09:56:40.469Z,993.74
2018-07-13T09:57:40.618Z,993.74
2018-07-13T09:58:40.754Z,993.72
2018-07-13T09:59:40.897Z,993.76
2018-07-13T10:00:41.088Z,993.74
2018-07-13T10:01:41.178Z,993.74
2018-07-13T10:02:41.322Z,993.77
2018-07-13T10:03:41.457Z,993.74
2018-07-13T10:04:41.603Z,993.74
2018-07-13T10:05:41.755Z,993.76
2018-07-13T10:06:41.901Z,993.76
2018-07-13T10:07:42.046Z,993.75
2018-07-13T10:08:42.192Z,993.69
2018-07-13T10:09:42.342Z,993.74
2018-07-13T10:10:42.472Z,993.73
2018-07-13T10:11:42.614Z,993.72
2018-07-13T10:12:42.757Z,993.73
2018-07-13T10:13:42.899Z,993.75
2018-07-13T10:14:43.043Z,993.71
2018-07-13T10:15:43.184Z,993.74
2018-07-13T10:16:43.330Z,993.76
2018-07-13T10:17:43.476Z,993.72
2018-07-13T10:18:43.619Z,993.73
2018-07-13T10:19:43.833Z,993.72
2018-07-13T10:20:43.859Z,993.74
2018-07-13T10:21:43.993Z,993.75
2018-07-13T10:22:44.172Z,993.68
2018-07-13T10:23:44.308Z,993.69
2018-07-13T10:24:44.459Z,993.68
2018-07-13T10:25:44.603Z,993.66
2018-07-13T10:26:44.792Z,993.67
2018-07-13T10:27:44.932Z,993.68
2018-07-13T10:28:45.097Z,993.69
2018-07-13T10:29:45.242Z,993.65
2018-07-13T10:30:45.409Z,993.67
2018-07-13T10:31:45.565Z,993.64
2018-07-13T10:32:45.708Z,993.62
2018-07-13T10:33:45.876Z,993.62
2018-07-13T10:34:46.017Z,993.67
2018-07-13T10:35:46.151Z,993.70
2018-07-13T10:36:46.307Z,993.62
2018-07-13T10:37:46.444Z,993.68
2018-07-13T10:38:46.593Z,993.72
2018-07-13T10:39:46.772Z,993.71
2018-07-13T10:40:46.895Z,993.65
2018-07-13T10:41:47.045Z,993.65
2018-07-13T10:42:47.204Z,993.68
2018-07-13T10:43:47.345Z,993.68
2018-07-13T10:44:47.490Z,993.67
2018-07-13T10:45:47.647Z,993.63
2018-07-13T10:46:47.832Z,993.64
2018-07-13T10:47:48.052Z,993.62
2018-07-13T10:48:48.151Z,993.63
2018-07-13T10:49:48.289Z,993.60
2018-07-13T10:50:48.433Z,993.62
2018-07-13T10:51:48.592Z,993.62
2018-07-13T10:52:48.816Z,993.62
2018-07-13T10:53:48.893Z,993.63
2018-07-13T10:54:49.032Z,993.57
2018-07-13T10:55:49.185Z,993.55
2018-07-13T10:56:49.329Z,993.54
2018-07-13T10:57:49.477Z,993.50
2018-07-13T10:58:49.626Z,993.57
2018-07-13T10:59:49.771Z,993.55
2018-07-13T11:00:49.915Z,993.51
2018-07-13T11:01:50.056Z,993.53
2018-07-13T11:02:50.218Z,993.50
2018-07-13T11:03:50.343Z,993.46
2018-07-13T11:04:50.487Z,993.43
2018-07-13T11:05:50.632Z,993.43
2018-07-13T11:06:50.777Z,993.46
2018-07-13T11:07:50.921Z,993.47
2018-07-13T11:08:51.067Z,993.44
2018-07-13T11:09:51.209Z,993.39
2018-07-13T11:10:51.360Z,993.47
2018-07-13T11:11:51.504Z,993.43
2018-07-13T11:12:51.648Z,993.44
2018-07-13T11:13:51.916Z,993.44
2018-07-13T11:14:51.941Z,993.42
2018-07-13T11:15:52.082Z,993.41
2018-07-13T11:16:52.225Z,993.37
2018-07-13T11:17:52.369Z,993.36
2018-07-13T11:18:52.513Z,993.35
2018-07-13T11:19:52.657Z,993.34
2018-07-13T11:20:52.804Z,993.32
2018-07-13T11:21:52.957Z,993.34
2018-07-13T11:22:53.120Z,993.36
2018-07-13T11:23:53.265Z,993.32
2018-07-13T11:24:53.537Z,993.29
2018-07-13T11:25:53.589Z,993.29
2018-07-13T11:26:53.737Z,993.29
2018-07-13T11:27:53.880Z,993.25
2018-07-13T11:28:54.044Z,993.26
2018-07-13T11:29:54.191Z,993.21
2018-07-13T11:30:54.332Z,993.31
2018-07-13T11:31:54.495Z,993.30
2018-07-13T11:32:54.644Z,993.26
2018-07-13T11:33:54.787Z,993.22
2018-07-13T11:34:54.929Z,993.24
2018-07-13T11:35:55.082Z,993.23
2018-07-13T11:36:55.261Z,993.23
2018-07-13T11:37:55.364Z,993.27
2018-07-13T11:38:55.541Z,993.29
2018-07-13T11:39:55.692Z,993.24
2018-07-13T11:40:55.787Z,993.24
2018-07-13T11:41:55.929Z,993.27
2018-07-13T11:42:56.069Z,993.25
2018-07-13T11:43:56.232Z,993.16
2018-07-13T11:44:56.375Z,993.18
2018-07-13T11:45:56.513Z,993.25
2018-07-13T11:46:56.677Z,993.27
2018-07-13T11:47:56.823Z,993.28
2018-07-13T11:48:56.956Z,993.29
2018-07-13T11:49:57.157Z,993.22
2018-07-13T11:50:57.274Z,993.28
2018-07-13T11:51:57.417Z,993.31
2018-07-13T11:52:57.580Z,993.33
2018-07-13T11:53:57.724Z,993.29
2018-07-13T11:54:57.877Z,993.28
2018-07-13T11:55:58.022Z,993.27
2018-07-13T11:56:58.164Z,993.26
2018-07-13T11:57:58.313Z,993.29
2018-07-13T11:58:58.457Z,993.21
2018-07-13T11:59:58.647Z,993.18
2018-07-13T12:00:58.748Z,993.16
2018-07-13T12:01:58.901Z,993.20
2018-07-13T12:02:59.040Z,993.19
2018-07-13T12:03:59.184Z,993.14
2018-07-13T12:04:59.332Z,993.19
2018-07-13T12:05:59.473Z,993.13
2018-07-13T12:06:59.625Z,993.15
2018-07-13T12:07:59.769Z,993.15
2018-07-13T12:08:59.916Z,993.13
2018-07-13T12:10:00.063Z,993.16
2018-07-13T12:11:00.204Z,993.16
2018-07-13T12:12:00.348Z,993.13
2018-07-13T12:13:00.494Z,993.09
2018-07-13T12:14:00.643Z,993.15
2018-07-13T12:15:00.789Z,993.11
2018-07-13T12:16:00.932Z,993.09
2018-07-13T12:17:01.073Z,993.07
2018-07-13T12:18:01.226Z,993.03
2018-07-13T12:19:01.370Z,993.01
2018-07-13T12:20:01.523Z,993.02
2018-07-13T12:21:01.665Z,992.99
2018-07-13T12:22:01.815Z,993.01
2018-07-13T12:23:01.954Z,993.03
2018-07-13T12:24:02.102Z,993.02
2018-07-13T12:25:02.251Z,993.04
2018-07-13T12:26:02.393Z,993.05
2018-07-13T12:27:02.576Z,993.04
2018-07-13T12:28:02.688Z,993.05
2018-07-13T12:29:02.845Z,993.14
2018-07-13T12:30:02.984Z,993.05
2018-07-13T12:31:03.128Z,993.03
2018-07-13T12:32:03.285Z,993.00